Randolph, Maine
Current Conditions -  °F | °C
As of 6:53 PM on Monday 22 Dec 2014 (Local Time) from KAUG Reporting Station
Overcast Overcast  
Wind Chill: 27°   Ceiling: 1400
Heat Index: 32°   Visibility: 10mi
Dew Point: 28°   Wind: 5mph
Humidity: 85%   Direction: 50°NE
Pressure: 30.4"   Gusts: NA
Location:  44.23°N, 69.75°W
Report Text: KAUG 222353Z AUTO 05004KT 10SM OVC014 00/M02 A3040 RMK AO2 SLP299 T00001022 10022 20000 53006
Loading
Personal Weather Stations






























Interactive Weather Map New forecast layout! Learn more

10-Day Weather Forecast

Advertisements
Track Severe Weather on mobile